North Tazewell, VA (24630)

09:15 PM EST วัน ธันวาคม 19, 2014 (GMT -0500)
Parkview Heights | Change Station
CLOSE
Current Station
Personal Weather Stations
Location: Bluefield, VA
Elevation: 2402 ft
Nearby Weather Stations

Elev 2402 ft 37.24 °N, 81.28 °W | Updated 12 seconds ago

มีเมฆคลุมเป็นส่วนๆ
มีเมฆคลุมเป็นส่วนๆ
28.4 ฟาเรนไฮน์
Feels Like 28 ฟาเรนไฮน์
N
0.0
ลม ความผันแปร ลม from ทางทิศเหนือ
Gusts 2.0 mph

วันนี้
High -- | Low -- ฟาเรนไฮน์
--% Chance of Precip.
Yesterday
High -- | Low -- ฟาเรนไฮน์
Precip. -- นิ้ว
7:34 AM 5:11 PM
เดือนเสี้ยว, 5% visible
ความดัน 30.17 นิ้ว
ทัศนวิสัย 10.0 ไมล์
เมฆ ท้องฟ้าแจ่มใส
ลมหนาว 28 ฟาเรนไฮน์
อุณหภูมิที่อากาศอาจจับตัวเป็นหยาดน้ำค้าง 25 ฟาเรนไฮน์
ความชื้น 87%
Rainfall 0.00 นิ้ว
Snow Depth Not available.
UV 0.0 out of 12
Pollen .10 out of 12
Air Quality Not available.
Flu Activity Not available.
METAR KJFZ 200155Z AUTO 06005KT 10SM CLR M01/M05 A3017 RMK AO2 T10111050

More Conditions Fewer Conditions

ความดัน 30.17 นิ้ว
ทัศนวิสัย 10.0 ไมล์
เมฆ ท้องฟ้าแจ่มใส
ลมหนาว 28 ฟาเรนไฮน์
อุณหภูมิที่อากาศอาจจับตัวเป็นหยาดน้ำค้าง 25 ฟาเรนไฮน์
ความชื้น 87%
Rainfall 0.00 นิ้ว
Snow Depth Not available.
UV 0.0 out of 12
Pollen .10 out of 12
Air Quality Not available.
Flu Activity Not available.
METAR KJFZ 200155Z AUTO 06005KT 10SM CLR M01/M05 A3017 RMK AO2 T10111050

More Conditions Fewer Conditions

10-Day Weather Forecast

Almanac

ดาราศาสตร์

Dec. 19, 2014 Rise Set
Actual Time
Civil Twilight
Nautical Twilight
Astronomical Twilight
Moon
Length Of Visible Light
ความยาวของวัน
Tomorrow will be .
, % of the Moon is Illuminated

Today's Extremes

State Highs State Lows

Community

WunderPhotos

Upload Photos

1,779,111 photos uploaded!

WunderBlogs® & News

Nearby

Air Quality

  Air Quality AQ Index Pollutant
Not available.

Snow Depth

Station Depth Elevation

Earthquake Activity

City Distance Mag. Time & Date
Minimum magnitude displayed is 2.5.

Coastal Water Temperatures

สถานที่ อุณหภูมิ

Nearby Weather Stations